EDDK Airport Information

Runway Information
Runway 06 Length 8067 ft width 148 ft
Elevation 231 ft Threshold ft Heading 64
Runway 24 Length 8067 ft Width 148 ft
Elevation 272 ft Threshold ft Heading 244
Runway 14R Length 6112 ft width 148 ft
Elevation 221 ft Threshold ft Heading 138
Runway 32L Length 6112 ft Width 148 ft
Elevation 259 ft Threshold ft Heading 318
Runway 14L Length 12516 ft width 197 ft
Elevation 230 ft Threshold ft Heading 138
Runway 32R Length 12516 ft Width 197 ft
Elevation 302 ft Threshold ft Heading 318
Airport Frequencies
Type ATIS Name ATIS Frequency 112.15 MHZ
Type CLD Name CLNC DEL Frequency 121.85 MHZ
Type DIR Name DIR Frequency 121.05 MHZ
Type GND Name GND Frequency 121.725 MHZ
Type INFO Name LANGEN INF Frequency 129.875 MHZ
Type MISC Name APRON Frequency 121.95 MHZ
Type POST Name MIL Frequency 136.25 MHZ
Type RDR Name LANGEN RAD Frequency 118.75 MHZ
Type TWR Name TWR Frequency 124.975 MHZ
Airport Navaids
Type VORTAC Name Cola Frequency 108800 KHZ
Type VOR-DME Name Koln/Bonn Frequency 112150 KHZ
Type NDB Name Koln/Bonn Frequency 365 KHZ
Type NDB Name Koln/Bonn Frequency 327 KHZ
Type NDB Name Koln/Bonn Frequency 301 KHZ
Airport Weather Information & NOTAM
ADDS - METARS form results

(0335 UTC 29 June 2022)
Data provider http://aviationweather.gov/metar/data/
 
METAR text: EDDK 290320Z AUTO 07005KT CAVOK 14/11 Q1015 NOSIG
Conditions at: EDDK (KOELN/BONN , DE) observed 0320 UTC 29 June 2022
Temperature: 14.0°C (57°F)
Dewpoint: 11.0°C (52°F) [RH = 82%]
Pressure (altimeter): 29.97 inches Hg (1015.0 mb)
Winds: from the ENE (70 degrees) at 6 MPH (5 knots; 2.6 m/s)
Visibility: 6 or more miles (10+ km)
Ceiling: ceiling and visibility are OK
Clouds: unknown
Weather: no significant weather observed at this time

METAR text: EDDK 290250Z AUTO VRB01KT CAVOK 13/12 Q1016 NOSIG
Conditions at: EDDK (KOELN/BONN , DE) observed 0250 UTC 29 June 2022
Temperature: 13.0°C (55°F)
Dewpoint: 12.0°C (54°F) [RH = 94%]
Pressure (altimeter): 30.00 inches Hg (1016.0 mb)
Winds: variable direction winds at 1 MPH (1 knots; 0.5 m/s)
Visibility: 6 or more miles (10+ km)
Ceiling: ceiling and visibility are OK
Clouds: unknown
Weather: no significant weather observed at this time

Forecast for: EDDK (KOELN/BONN , DE)
Text: TAF EDDK 282300Z 2900/3006 12005KT CAVOK
Forecast period: 0000 UTC 29 June 2022 to 0600 UTC 30 June 2022
Forecast type: FROM: standard forecast or significant change
Winds: from the ESE (120 degrees) at 6 MPH (5 knots; 2.6 m/s)
Visibility: 6 or more miles (10+ km)
Ceiling: unknown
Clouds: missing
Weather: NSW  (no significant weather)
Text: TEMPO 2900/3006 VRB03KT
Forecast period: 0000 UTC 29 June 2022 to 0600 UTC 30 June 2022
Forecast type: TEMPORARY: The following changes expected for less than half the time period
Winds: variable direction winds at 3 MPH (3 knots; 1.5 m/s)
Visibility: missing
Ceiling: unknown
Clouds: missing
Weather: no significant weather forecast for this period